sensor_id;sensor_type;location;lat;lon;timestamp;temperature;humidity
30694;DHT22;17446;48.022;-1.740;2022-09-09T00:02:31;17.50;99.90
30694;DHT22;17446;48.022;-1.740;2022-09-09T00:04:38;17.50;99.90
30694;DHT22;17446;48.022;-1.740;2022-09-09T00:07:07;17.50;99.90
30694;DHT22;17446;48.022;-1.740;2022-09-09T00:09:39;17.50;99.90
30694;DHT22;17446;48.022;-1.740;2022-09-09T00:12:17;17.50;99.90
30694;DHT22;17446;48.022;-1.740;2022-09-09T00:14:52;17.50;99.90
30694;DHT22;17446;48.022;-1.740;2022-09-09T00:17:35;17.50;99.90
30694;DHT22;17446;48.022;-1.740;2022-09-09T00:20:03;17.40;99.90
30694;DHT22;17446;48.022;-1.740;2022-09-09T00:22:35;17.40;99.90
30694;DHT22;17446;48.022;-1.740;2022-09-09T00:25:06;17.40;99.90
30694;DHT22;17446;48.022;-1.740;2022-09-09T00:27:41;17.50;99.90
30694;DHT22;17446;48.022;-1.740;2022-09-09T00:30:26;17.40;99.90
30694;DHT22;17446;48.022;-1.740;2022-09-09T00:32:53;17.40;99.90
30694;DHT22;17446;48.022;-1.740;2022-09-09T00:35:27;17.40;99.90
30694;DHT22;17446;48.022;-1.740;2022-09-09T00:37:55;17.40;99.90
30694;DHT22;17446;48.022;-1.740;2022-09-09T00:40:26;17.40;99.90
30694;DHT22;17446;48.022;-1.740;2022-09-09T00:47:58;17.40;99.90
30694;DHT22;17446;48.022;-1.740;2022-09-09T00:55:46;17.30;99.90
30694;DHT22;17446;48.022;-1.740;2022-09-09T00:58:13;17.30;99.90
30694;DHT22;17446;48.022;-1.740;2022-09-09T01:00:43;17.20;99.90
30694;DHT22;17446;48.022;-1.740;2022-09-09T01:03:22;17.20;99.90
30694;DHT22;17446;48.022;-1.740;2022-09-09T01:06:11;17.20;99.90
30694;DHT22;17446;48.022;-1.740;2022-09-09T01:11:02;17.20;99.90
30694;DHT22;17446;48.022;-1.740;2022-09-09T01:13:28;17.20;99.90
30694;DHT22;17446;48.022;-1.740;2022-09-09T01:15:59;17.20;99.90
30694;DHT22;17446;48.022;-1.740;2022-09-09T01:18:43;17.20;99.90
30694;DHT22;17446;48.022;-1.740;2022-09-09T01:21:22;17.20;99.90
30694;DHT22;17446;48.022;-1.740;2022-09-09T01:24:04;17.20;99.90
30694;DHT22;17446;48.022;-1.740;2022-09-09T01:26:35;17.20;99.90
30694;DHT22;17446;48.022;-1.740;2022-09-09T01:29:02;17.20;99.90
30694;DHT22;17446;48.022;-1.740;2022-09-09T01:31:34;17.10;99.90
30694;DHT22;17446;48.022;-1.740;2022-09-09T01:34:01;17.20;99.90
30694;DHT22;17446;48.022;-1.740;2022-09-09T01:36:44;17.20;99.90
30694;DHT22;17446;48.022;-1.740;2022-09-09T01:39:11;17.10;99.90
30694;DHT22;17446;48.022;-1.740;2022-09-09T01:41:37;17.10;99.90
30694;DHT22;17446;48.022;-1.740;2022-09-09T01:44:02;17.10;99.90
30694;DHT22;17446;48.022;-1.740;2022-09-09T01:46:28;17.10;99.90
30694;DHT22;17446;48.022;-1.740;2022-09-09T01:48:54;17.10;99.90
30694;DHT22;17446;48.022;-1.740;2022-09-09T01:51:20;17.00;99.90
30694;DHT22;17446;48.022;-1.740;2022-09-09T01:53:45;17.00;99.90
30694;DHT22;17446;48.022;-1.740;2022-09-09T02:06:46;16.90;99.90
30694;DHT22;17446;48.022;-1.740;2022-09-09T02:09:13;17.00;99.90
30694;DHT22;17446;48.022;-1.740;2022-09-09T02:11:40;16.90;99.90
30694;DHT22;17446;48.022;-1.740;2022-09-09T02:14:12;17.00;99.90
30694;DHT22;17446;48.022;-1.740;2022-09-09T02:19:26;16.90;99.90
30694;DHT22;17446;48.022;-1.740;2022-09-09T02:21:53;16.90;99.90
30694;DHT22;17446;48.022;-1.740;2022-09-09T02:24:20;16.90;99.90
30694;DHT22;17446;48.022;-1.740;2022-09-09T02:26:47;17.00;99.90
30694;DHT22;17446;48.022;-1.740;2022-09-09T02:29:18;17.00;99.90
30694;DHT22;17446;48.022;-1.740;2022-09-09T02:31:45;17.00;99.90
30694;DHT22;17446;48.022;-1.740;2022-09-09T02:34:12;17.00;99.90
30694;DHT22;17446;48.022;-1.740;2022-09-09T02:36:39;17.00;99.90
30694;DHT22;17446;48.022;-1.740;2022-09-09T02:39:06;17.10;99.90
30694;DHT22;17446;48.022;-1.740;2022-09-09T02:41:33;17.10;99.90
30694;DHT22;17446;48.022;-1.740;2022-09-09T02:44:00;17.10;99.90
30694;DHT22;17446;48.022;-1.740;2022-09-09T02:46:36;17.10;99.90
30694;DHT22;17446;48.022;-1.740;2022-09-09T02:56:51;17.30;99.90
30694;DHT22;17446;48.022;-1.740;2022-09-09T02:59:18;17.30;99.90
30694;DHT22;17446;48.022;-1.740;2022-09-09T03:01:43;17.30;99.90
30694;DHT22;17446;48.022;-1.740;2022-09-09T03:04:10;17.30;99.90
30694;DHT22;17446;48.022;-1.740;2022-09-09T03:06:35;17.30;99.90
30694;DHT22;17446;48.022;-1.740;2022-09-09T03:09:01;17.30;99.90
30694;DHT22;17446;48.022;-1.740;2022-09-09T03:11:28;17.30;99.90
30694;DHT22;17446;48.022;-1.740;2022-09-09T03:13:54;17.30;99.90
30694;DHT22;17446;48.022;-1.740;2022-09-09T03:16:21;17.30;99.90
30694;DHT22;17446;48.022;-1.740;2022-09-09T03:18:47;17.30;99.90
30694;DHT22;17446;48.022;-1.740;2022-09-09T03:21:12;17.30;99.90
30694;DHT22;17446;48.022;-1.740;2022-09-09T03:23:38;17.30;99.90
30694;DHT22;17446;48.022;-1.740;2022-09-09T03:26:04;17.30;99.90
30694;DHT22;17446;48.022;-1.740;2022-09-09T03:28:29;17.30;99.90
30694;DHT22;17446;48.022;-1.740;2022-09-09T03:31:03;17.30;99.90
30694;DHT22;17446;48.022;-1.740;2022-09-09T03:33:29;17.30;99.90
30694;DHT22;17446;48.022;-1.740;2022-09-09T03:35:55;17.30;99.90
30694;DHT22;17446;48.022;-1.740;2022-09-09T03:38:24;17.30;99.90
30694;DHT22;17446;48.022;-1.740;2022-09-09T03:40:50;17.30;99.90
30694;DHT22;17446;48.022;-1.740;2022-09-09T03:43:16;17.30;99.90
30694;DHT22;17446;48.022;-1.740;2022-09-09T03:45:45;17.40;99.90
30694;DHT22;17446;48.022;-1.740;2022-09-09T03:48:13;17.40;99.90
30694;DHT22;17446;48.022;-1.740;2022-09-09T03:50:38;17.30;99.90
30694;DHT22;17446;48.022;-1.740;2022-09-09T03:53:04;17.30;99.90
30694;DHT22;17446;48.022;-1.740;2022-09-09T03:55:31;17.40;99.90
30694;DHT22;17446;48.022;-1.740;2022-09-09T03:57:57;17.40;99.90
30694;DHT22;17446;48.022;-1.740;2022-09-09T04:00:23;17.40;99.90
30694;DHT22;17446;48.022;-1.740;2022-09-09T04:02:49;17.30;99.90
30694;DHT22;17446;48.022;-1.740;2022-09-09T04:05:15;17.30;99.90
30694;DHT22;17446;48.022;-1.740;2022-09-09T04:07:40;17.30;99.90
30694;DHT22;17446;48.022;-1.740;2022-09-09T04:10:06;17.30;99.90
30694;DHT22;17446;48.022;-1.740;2022-09-09T04:12:32;17.30;99.90
30694;DHT22;17446;48.022;-1.740;2022-09-09T04:14:58;17.30;99.90
30694;DHT22;17446;48.022;-1.740;2022-09-09T04:17:23;17.30;99.90
30694;DHT22;17446;48.022;-1.740;2022-09-09T04:19:49;17.30;99.90
30694;DHT22;17446;48.022;-1.740;2022-09-09T04:22:15;17.30;99.90
30694;DHT22;17446;48.022;-1.740;2022-09-09T04:24:41;17.30;99.90
30694;DHT22;17446;48.022;-1.740;2022-09-09T04:27:06;17.30;99.90
30694;DHT22;17446;48.022;-1.740;2022-09-09T04:29:32;17.30;99.90
30694;DHT22;17446;48.022;-1.740;2022-09-09T04:31:58;17.20;99.90
30694;DHT22;17446;48.022;-1.740;2022-09-09T04:34:24;17.20;99.90
30694;DHT22;17446;48.022;-1.740;2022-09-09T04:36:50;17.20;99.90
30694;DHT22;17446;48.022;-1.740;2022-09-09T04:39:17;17.10;99.90
30694;DHT22;17446;48.022;-1.740;2022-09-09T04:41:42;17.10;99.90
30694;DHT22;17446;48.022;-1.740;2022-09-09T04:44:08;17.10;99.90
30694;DHT22;17446;48.022;-1.740;2022-09-09T04:46:33;17.10;99.90
30694;DHT22;17446;48.022;-1.740;2022-09-09T04:49:02;17.10;99.90
30694;DHT22;17446;48.022;-1.740;2022-09-09T04:51:27;17.10;99.90
30694;DHT22;17446;48.022;-1.740;2022-09-09T04:53:53;17.10;99.90
30694;DHT22;17446;48.022;-1.740;2022-09-09T04:56:19;17.20;99.90
30694;DHT22;17446;48.022;-1.740;2022-09-09T04:58:44;17.20;99.90
30694;DHT22;17446;48.022;-1.740;2022-09-09T05:01:12;17.20;99.90
30694;DHT22;17446;48.022;-1.740;2022-09-09T05:03:38;17.20;99.90
30694;DHT22;17446;48.022;-1.740;2022-09-09T05:06:07;17.20;99.90
30694;DHT22;17446;48.022;-1.740;2022-09-09T05:08:34;17.10;99.90
30694;DHT22;17446;48.022;-1.740;2022-09-09T05:10:59;17.10;99.90
30694;DHT22;17446;48.022;-1.740;2022-09-09T05:13:25;17.10;99.90
30694;DHT22;17446;48.022;-1.740;2022-09-09T05:15:54;17.00;99.90
30694;DHT22;17446;48.022;-1.740;2022-09-09T05:18:20;17.00;99.90
30694;DHT22;17446;48.022;-1.740;2022-09-09T05:20:45;17.00;99.90
30694;DHT22;17446;48.022;-1.740;2022-09-09T05:23:11;16.90;99.90
30694;DHT22;17446;48.022;-1.740;2022-09-09T05:25:38;16.90;99.90
30694;DHT22;17446;48.022;-1.740;2022-09-09T05:28:04;16.90;99.90
30694;DHT22;17446;48.022;-1.740;2022-09-09T05:30:30;16.90;99.90
30694;DHT22;17446;48.022;-1.740;2022-09-09T05:32:56;16.90;99.90
30694;DHT22;17446;48.022;-1.740;2022-09-09T05:35:21;16.80;99.90
30694;DHT22;17446;48.022;-1.740;2022-09-09T05:37:48;16.80;99.90
30694;DHT22;17446;48.022;-1.740;2022-09-09T05:40:13;16.80;99.90
30694;DHT22;17446;48.022;-1.740;2022-09-09T05:42:39;16.80;99.90
30694;DHT22;17446;48.022;-1.740;2022-09-09T05:45:06;16.90;99.90
30694;DHT22;17446;48.022;-1.740;2022-09-09T05:47:33;16.80;99.90
30694;DHT22;17446;48.022;-1.740;2022-09-09T05:49:58;16.80;99.90
30694;DHT22;17446;48.022;-1.740;2022-09-09T05:52:24;16.80;99.90
30694;DHT22;17446;48.022;-1.740;2022-09-09T05:54:51;16.90;99.90
30694;DHT22;17446;48.022;-1.740;2022-09-09T05:57:16;16.90;99.90
30694;DHT22;17446;48.022;-1.740;2022-09-09T05:59:42;16.90;99.90
30694;DHT22;17446;48.022;-1.740;2022-09-09T06:02:08;16.90;99.90
30694;DHT22;17446;48.022;-1.740;2022-09-09T06:04:34;16.90;99.90
30694;DHT22;17446;48.022;-1.740;2022-09-09T06:07:00;16.90;99.90
30694;DHT22;17446;48.022;-1.740;2022-09-09T06:09:26;16.90;99.90
30694;DHT22;17446;48.022;-1.740;2022-09-09T06:11:51;16.90;99.90
30694;DHT22;17446;48.022;-1.740;2022-09-09T06:14:17;16.90;99.90
30694;DHT22;17446;48.022;-1.740;2022-09-09T06:16:47;16.90;99.90
30694;DHT22;17446;48.022;-1.740;2022-09-09T06:19:12;16.90;99.90
30694;DHT22;17446;48.022;-1.740;2022-09-09T06:21:38;16.90;99.90
30694;DHT22;17446;48.022;-1.740;2022-09-09T06:24:04;17.00;99.90
30694;DHT22;17446;48.022;-1.740;2022-09-09T06:26:33;17.00;99.90
30694;DHT22;17446;48.022;-1.740;2022-09-09T06:28:59;17.00;99.90
30694;DHT22;17446;48.022;-1.740;2022-09-09T06:31:26;17.00;99.90
30694;DHT22;17446;48.022;-1.740;2022-09-09T06:33:55;17.00;99.90
30694;DHT22;17446;48.022;-1.740;2022-09-09T06:36:22;17.00;99.90
30694;DHT22;17446;48.022;-1.740;2022-09-09T06:38:48;17.00;99.90
30694;DHT22;17446;48.022;-1.740;2022-09-09T06:41:15;17.00;99.90
30694;DHT22;17446;48.022;-1.740;2022-09-09T06:43:41;17.00;99.90
30694;DHT22;17446;48.022;-1.740;2022-09-09T06:46:11;17.10;99.90
30694;DHT22;17446;48.022;-1.740;2022-09-09T06:48:38;17.10;99.90
30694;DHT22;17446;48.022;-1.740;2022-09-09T06:51:04;17.10;99.90
30694;DHT22;17446;48.022;-1.740;2022-09-09T06:53:30;17.20;99.90
30694;DHT22;17446;48.022;-1.740;2022-09-09T06:56:02;17.20;99.90
30694;DHT22;17446;48.022;-1.740;2022-09-09T06:58:28;17.20;99.90
30694;DHT22;17446;48.022;-1.740;2022-09-09T07:01:03;17.30;99.90
30694;DHT22;17446;48.022;-1.740;2022-09-09T07:03:29;17.30;99.90
30694;DHT22;17446;48.022;-1.740;2022-09-09T07:05:55;17.30;99.90
30694;DHT22;17446;48.022;-1.740;2022-09-09T07:08:21;17.40;99.90
30694;DHT22;17446;48.022;-1.740;2022-09-09T07:10:47;17.50;99.90
30694;DHT22;17446;48.022;-1.740;2022-09-09T07:13:13;17.60;99.90
30694;DHT22;17446;48.022;-1.740;2022-09-09T07:15:41;17.70;99.90
30694;DHT22;17446;48.022;-1.740;2022-09-09T07:18:07;17.90;99.90
30694;DHT22;17446;48.022;-1.740;2022-09-09T07:20:32;18.00;99.90
30694;DHT22;17446;48.022;-1.740;2022-09-09T07:22:58;18.10;99.90
30694;DHT22;17446;48.022;-1.740;2022-09-09T07:25:24;18.10;99.90
30694;DHT22;17446;48.022;-1.740;2022-09-09T07:27:51;18.20;99.90
30694;DHT22;17446;48.022;-1.740;2022-09-09T07:30:17;18.40;99.90
30694;DHT22;17446;48.022;-1.740;2022-09-09T07:32:43;18.50;99.90
30694;DHT22;17446;48.022;-1.740;2022-09-09T07:35:09;18.70;99.90
30694;DHT22;17446;48.022;-1.740;2022-09-09T07:37:35;18.90;99.90
30694;DHT22;17446;48.022;-1.740;2022-09-09T07:40:01;19.00;99.90
30694;DHT22;17446;48.022;-1.740;2022-09-09T07:42:27;19.00;99.90
30694;DHT22;17446;48.022;-1.740;2022-09-09T07:44:52;19.10;99.90
30694;DHT22;17446;48.022;-1.740;2022-09-09T07:47:20;19.10;99.90
30694;DHT22;17446;48.022;-1.740;2022-09-09T07:49:46;19.10;99.90
30694;DHT22;17446;48.022;-1.740;2022-09-09T07:52:11;19.10;99.90
30694;DHT22;17446;48.022;-1.740;2022-09-09T07:54:37;19.20;99.90
30694;DHT22;17446;48.022;-1.740;2022-09-09T07:57:03;19.30;99.90
30694;DHT22;17446;48.022;-1.740;2022-09-09T07:59:29;19.30;99.90
30694;DHT22;17446;48.022;-1.740;2022-09-09T08:01:55;19.40;99.90
30694;DHT22;17446;48.022;-1.740;2022-09-09T08:04:21;19.50;99.90
30694;DHT22;17446;48.022;-1.740;2022-09-09T08:06:54;19.60;99.90
30694;DHT22;17446;48.022;-1.740;2022-09-09T08:09:20;19.60;99.90
30694;DHT22;17446;48.022;-1.740;2022-09-09T08:11:46;19.70;99.90
30694;DHT22;17446;48.022;-1.740;2022-09-09T08:14:12;19.80;99.90
30694;DHT22;17446;48.022;-1.740;2022-09-09T08:16:39;19.90;99.90
30694;DHT22;17446;48.022;-1.740;2022-09-09T08:19:05;19.90;99.90
30694;DHT22;17446;48.022;-1.740;2022-09-09T08:21:33;20.00;99.90
30694;DHT22;17446;48.022;-1.740;2022-09-09T08:23:59;20.10;99.90
30694;DHT22;17446;48.022;-1.740;2022-09-09T08:26:26;20.20;99.90
30694;DHT22;17446;48.022;-1.740;2022-09-09T08:28:53;20.30;99.90
30694;DHT22;17446;48.022;-1.740;2022-09-09T08:31:20;20.40;99.90
30694;DHT22;17446;48.022;-1.740;2022-09-09T08:33:46;20.40;99.70
30694;DHT22;17446;48.022;-1.740;2022-09-09T08:36:12;20.50;99.60
30694;DHT22;17446;48.022;-1.740;2022-09-09T08:38:40;20.50;99.20
30694;DHT22;17446;48.022;-1.740;2022-09-09T08:43:51;20.60;99.30
30694;DHT22;17446;48.022;-1.740;2022-09-09T08:46:25;20.60;99.50
30694;DHT22;17446;48.022;-1.740;2022-09-09T08:49:57;20.80;98.80
30694;DHT22;17446;48.022;-1.740;2022-09-09T08:51:48;20.90;99.00
30694;DHT22;17446;48.022;-1.740;2022-09-09T08:54:14;21.00;98.70
30694;DHT22;17446;48.022;-1.740;2022-09-09T08:56:40;21.10;98.60
30694;DHT22;17446;48.022;-1.740;2022-09-09T08:59:07;21.20;98.50
30694;DHT22;17446;48.022;-1.740;2022-09-09T09:01:38;21.20;98.30
30694;DHT22;17446;48.022;-1.740;2022-09-09T09:09:13;21.20;98.00
30694;DHT22;17446;48.022;-1.740;2022-09-09T09:11:40;21.30;98.10
30694;DHT22;17446;48.022;-1.740;2022-09-09T09:14:19;21.40;97.80
30694;DHT22;17446;48.022;-1.740;2022-09-09T09:19:14;21.40;97.50
30694;DHT22;17446;48.022;-1.740;2022-09-09T09:21:51;21.40;97.00
30694;DHT22;17446;48.022;-1.740;2022-09-09T09:24:23;21.30;96.60
30694;DHT22;17446;48.022;-1.740;2022-09-09T09:26:52;21.30;97.30
30694;DHT22;17446;48.022;-1.740;2022-09-09T09:29:19;21.40;97.50
30694;DHT22;17446;48.022;-1.740;2022-09-09T09:31:52;21.60;97.30
30694;DHT22;17446;48.022;-1.740;2022-09-09T09:34:19;21.70;96.80
30694;DHT22;17446;48.022;-1.740;2022-09-09T09:37:20;21.80;97.00
30694;DHT22;17446;48.022;-1.740;2022-09-09T09:39:37;21.80;96.60
30694;DHT22;17446;48.022;-1.740;2022-09-09T09:42:09;21.70;96.40
30694;DHT22;17446;48.022;-1.740;2022-09-09T09:44:35;21.60;96.20
30694;DHT22;17446;48.022;-1.740;2022-09-09T09:47:06;21.50;96.50
30694;DHT22;17446;48.022;-1.740;2022-09-09T09:49:32;21.60;96.50
30694;DHT22;17446;48.022;-1.740;2022-09-09T09:52:01;21.60;96.70
30694;DHT22;17446;48.022;-1.740;2022-09-09T09:54:28;21.60;96.80
30694;DHT22;17446;48.022;-1.740;2022-09-09T09:56:54;21.60;96.50
30694;DHT22;17446;48.022;-1.740;2022-09-09T10:01:45;21.70;96.30
30694;DHT22;17446;48.022;-1.740;2022-09-09T10:04:15;21.70;96.50
30694;DHT22;17446;48.022;-1.740;2022-09-09T10:06:42;21.60;96.50
30694;DHT22;17446;48.022;-1.740;2022-09-09T10:09:24;21.60;96.40
30694;DHT22;17446;48.022;-1.740;2022-09-09T10:14:19;21.80;96.50
30694;DHT22;17446;48.022;-1.740;2022-09-09T10:19:32;21.90;96.10
30694;DHT22;17446;48.022;-1.740;2022-09-09T10:24:46;22.10;95.20
30694;DHT22;17446;48.022;-1.740;2022-09-09T10:32:40;22.00;95.60
30694;DHT22;17446;48.022;-1.740;2022-09-09T10:42:40;22.00;95.70
30694;DHT22;17446;48.022;-1.740;2022-09-09T10:45:13;22.00;95.50
30694;DHT22;17446;48.022;-1.740;2022-09-09T10:47:44;22.00;95.60
30694;DHT22;17446;48.022;-1.740;2022-09-09T10:53:08;21.80;96.00
30694;DHT22;17446;48.022;-1.740;2022-09-09T10:55:38;21.70;96.20
30694;DHT22;17446;48.022;-1.740;2022-09-09T10:58:04;21.60;96.10
30694;DHT22;17446;48.022;-1.740;2022-09-09T11:00:42;21.50;96.70
30694;DHT22;17446;48.022;-1.740;2022-09-09T11:03:15;21.50;96.80
30694;DHT22;17446;48.022;-1.740;2022-09-09T11:05:49;21.50;97.10
30694;DHT22;17446;48.022;-1.740;2022-09-09T11:08:17;21.60;96.80
30694;DHT22;17446;48.022;-1.740;2022-09-09T11:11:02;21.60;96.30
30694;DHT22;17446;48.022;-1.740;2022-09-09T11:18:39;22.00;96.80
30694;DHT22;17446;48.022;-1.740;2022-09-09T11:21:05;22.30;96.20
30694;DHT22;17446;48.022;-1.740;2022-09-09T11:23:40;22.40;95.30
30694;DHT22;17446;48.022;-1.740;2022-09-09T11:26:07;22.60;95.40
30694;DHT22;17446;48.022;-1.740;2022-09-09T11:34:36;23.20;94.50
30694;DHT22;17446;48.022;-1.740;2022-09-09T11:42:07;23.30;94.20
30694;DHT22;17446;48.022;-1.740;2022-09-09T11:44:33;23.20;93.80
30694;DHT22;17446;48.022;-1.740;2022-09-09T11:46:58;23.10;94.20
30694;DHT22;17446;48.022;-1.740;2022-09-09T11:51:53;22.80;93.90
30694;DHT22;17446;48.022;-1.740;2022-09-09T11:54:32;22.70;94.20
30694;DHT22;17446;48.022;-1.740;2022-09-09T11:56:58;22.60;94.40
30694;DHT22;17446;48.022;-1.740;2022-09-09T11:59:33;22.40;95.10
30694;DHT22;17446;48.022;-1.740;2022-09-09T12:04:30;21.90;97.50
30694;DHT22;17446;48.022;-1.740;2022-09-09T12:06:58;21.80;97.80
30694;DHT22;17446;48.022;-1.740;2022-09-09T12:19:40;21.70;99.40
30694;DHT22;17446;48.022;-1.740;2022-09-09T12:24:55;21.80;99.90
30694;DHT22;17446;48.022;-1.740;2022-09-09T12:27:42;21.90;99.90
30694;DHT22;17446;48.022;-1.740;2022-09-09T12:30:12;22.00;99.90
30694;DHT22;17446;48.022;-1.740;2022-09-09T12:32:39;22.10;99.90
30694;DHT22;17446;48.022;-1.740;2022-09-09T12:37:44;22.30;99.90
30694;DHT22;17446;48.022;-1.740;2022-09-09T12:42:40;22.20;98.60
30694;DHT22;17446;48.022;-1.740;2022-09-09T12:45:14;22.10;98.60
30694;DHT22;17446;48.022;-1.740;2022-09-09T12:47:46;22.20;98.50
30694;DHT22;17446;48.022;-1.740;2022-09-09T12:50:29;22.20;97.90
30694;DHT22;17446;48.022;-1.740;2022-09-09T12:52:56;22.20;98.10
30694;DHT22;17446;48.022;-1.740;2022-09-09T12:55:25;22.40;97.60
30694;DHT22;17446;48.022;-1.740;2022-09-09T12:57:51;22.50;97.40
30694;DHT22;17446;48.022;-1.740;2022-09-09T13:02:47;22.80;96.30
30694;DHT22;17446;48.022;-1.740;2022-09-09T13:05:14;22.90;96.70
30694;DHT22;17446;48.022;-1.740;2022-09-09T13:07:40;22.90;96.10
30694;DHT22;17446;48.022;-1.740;2022-09-09T13:10:05;23.10;95.70
30694;DHT22;17446;48.022;-1.740;2022-09-09T13:12:31;23.30;95.50
30694;DHT22;17446;48.022;-1.740;2022-09-09T13:14:57;23.40;96.10
30694;DHT22;17446;48.022;-1.740;2022-09-09T13:17:24;23.60;95.60
30694;DHT22;17446;48.022;-1.740;2022-09-09T13:19:50;23.80;95.50
30694;DHT22;17446;48.022;-1.740;2022-09-09T13:27:38;23.90;94.10
30694;DHT22;17446;48.022;-1.740;2022-09-09T13:32:59;24.00;93.90
30694;DHT22;17446;48.022;-1.740;2022-09-09T13:35:26;24.10;94.10
30694;DHT22;17446;48.022;-1.740;2022-09-09T13:37:51;24.20;93.50
30694;DHT22;17446;48.022;-1.740;2022-09-09T13:40:18;24.20;93.50
30694;DHT22;17446;48.022;-1.740;2022-09-09T13:42:44;24.20;93.30
30694;DHT22;17446;48.022;-1.740;2022-09-09T13:45:21;24.10;93.40
30694;DHT22;17446;48.022;-1.740;2022-09-09T13:47:47;24.00;93.20
30694;DHT22;17446;48.022;-1.740;2022-09-09T13:50:29;23.90;92.60
30694;DHT22;17446;48.022;-1.740;2022-09-09T13:52:55;23.90;93.20
30694;DHT22;17446;48.022;-1.740;2022-09-09T13:55:24;24.00;93.20
30694;DHT22;17446;48.022;-1.740;2022-09-09T13:57:56;24.20;92.70
30694;DHT22;17446;48.022;-1.740;2022-09-09T14:00:23;24.20;92.10
30694;DHT22;17446;48.022;-1.740;2022-09-09T14:02:49;24.30;92.50
30694;DHT22;17446;48.022;-1.740;2022-09-09T14:05:15;24.40;91.40
30694;DHT22;17446;48.022;-1.740;2022-09-09T14:07:41;24.40;91.40
30694;DHT22;17446;48.022;-1.740;2022-09-09T14:10:07;24.00;92.20
30694;DHT22;17446;48.022;-1.740;2022-09-09T14:12:33;23.70;93.10
30694;DHT22;17446;48.022;-1.740;2022-09-09T14:14:59;23.30;93.50
30694;DHT22;17446;48.022;-1.740;2022-09-09T14:17:25;22.90;93.80
30694;DHT22;17446;48.022;-1.740;2022-09-09T14:19:52;22.70;94.40
30694;DHT22;17446;48.022;-1.740;2022-09-09T14:22:18;22.10;94.30
30694;DHT22;17446;48.022;-1.740;2022-09-09T14:24:43;21.90;94.90
30694;DHT22;17446;48.022;-1.740;2022-09-09T14:27:09;21.80;95.30
30694;DHT22;17446;48.022;-1.740;2022-09-09T14:29:34;21.50;95.80
30694;DHT22;17446;48.022;-1.740;2022-09-09T14:32:00;21.40;96.10
30694;DHT22;17446;48.022;-1.740;2022-09-09T14:34:28;21.40;96.10
30694;DHT22;17446;48.022;-1.740;2022-09-09T14:36:54;21.40;96.20
30694;DHT22;17446;48.022;-1.740;2022-09-09T14:39:19;21.30;96.50
30694;DHT22;17446;48.022;-1.740;2022-09-09T14:41:45;21.20;96.80
30694;DHT22;17446;48.022;-1.740;2022-09-09T14:44:11;21.20;96.40
30694;DHT22;17446;48.022;-1.740;2022-09-09T14:46:36;21.20;96.00
30694;DHT22;17446;48.022;-1.740;2022-09-09T14:49:02;21.10;95.80
30694;DHT22;17446;48.022;-1.740;2022-09-09T14:51:27;21.10;95.40
30694;DHT22;17446;48.022;-1.740;2022-09-09T14:53:57;21.10;95.70
30694;DHT22;17446;48.022;-1.740;2022-09-09T14:56:24;21.30;95.80
30694;DHT22;17446;48.022;-1.740;2022-09-09T14:58:49;21.40;95.50
30694;DHT22;17446;48.022;-1.740;2022-09-09T15:01:17;21.40;95.10
30694;DHT22;17446;48.022;-1.740;2022-09-09T15:03:48;21.50;95.50
30694;DHT22;17446;48.022;-1.740;2022-09-09T15:06:14;21.60;95.10
30694;DHT22;17446;48.022;-1.740;2022-09-09T15:08:40;21.70;94.90
30694;DHT22;17446;48.022;-1.740;2022-09-09T15:11:06;21.80;95.00
30694;DHT22;17446;48.022;-1.740;2022-09-09T15:13:36;21.80;94.80
30694;DHT22;17446;48.022;-1.740;2022-09-09T15:18:31;22.10;94.90
30694;DHT22;17446;48.022;-1.740;2022-09-09T15:20:58;22.20;94.70
30694;DHT22;17446;48.022;-1.740;2022-09-09T15:23:25;22.30;94.80
30694;DHT22;17446;48.022;-1.740;2022-09-09T15:25:51;22.40;94.70
30694;DHT22;17446;48.022;-1.740;2022-09-09T15:28:17;22.50;94.70
30694;DHT22;17446;48.022;-1.740;2022-09-09T15:30:43;22.70;94.80
30694;DHT22;17446;48.022;-1.740;2022-09-09T15:33:10;22.80;94.90
30694;DHT22;17446;48.022;-1.740;2022-09-09T15:35:35;23.00;95.00
30694;DHT22;17446;48.022;-1.740;2022-09-09T15:38:01;23.30;94.90
30694;DHT22;17446;48.022;-1.740;2022-09-09T15:40:27;23.60;94.50
30694;DHT22;17446;48.022;-1.740;2022-09-09T15:42:52;23.70;94.40
30694;DHT22;17446;48.022;-1.740;2022-09-09T15:45:18;23.80;93.90
30694;DHT22;17446;48.022;-1.740;2022-09-09T15:47:44;23.80;93.90
30694;DHT22;17446;48.022;-1.740;2022-09-09T15:50:12;24.00;93.50
30694;DHT22;17446;48.022;-1.740;2022-09-09T15:52:37;24.30;93.90
30694;DHT22;17446;48.022;-1.740;2022-09-09T15:55:03;24.50;93.50
30694;DHT22;17446;48.022;-1.740;2022-09-09T15:57:29;24.60;92.80
30694;DHT22;17446;48.022;-1.740;2022-09-09T15:59:54;24.60;93.00
30694;DHT22;17446;48.022;-1.740;2022-09-09T16:02:20;24.90;92.70
30694;DHT22;17446;48.022;-1.740;2022-09-09T16:04:45;25.00;92.40
30694;DHT22;17446;48.022;-1.740;2022-09-09T16:07:11;25.00;91.50
30694;DHT22;17446;48.022;-1.740;2022-09-09T16:09:36;24.90;91.90
30694;DHT22;17446;48.022;-1.740;2022-09-09T16:12:03;24.90;91.90
30694;DHT22;17446;48.022;-1.740;2022-09-09T16:14:33;24.80;91.30
30694;DHT22;17446;48.022;-1.740;2022-09-09T16:17:01;24.70;91.10
30694;DHT22;17446;48.022;-1.740;2022-09-09T16:19:27;24.80;90.60
30694;DHT22;17446;48.022;-1.740;2022-09-09T16:21:53;24.80;90.60
30694;DHT22;17446;48.022;-1.740;2022-09-09T16:24:19;24.80;90.50
30694;DHT22;17446;48.022;-1.740;2022-09-09T16:26:48;24.70;90.50
30694;DHT22;17446;48.022;-1.740;2022-09-09T16:29:14;24.60;90.40
30694;DHT22;17446;48.022;-1.740;2022-09-09T16:31:40;24.50;90.30
30694;DHT22;17446;48.022;-1.740;2022-09-09T16:34:07;24.40;90.20
30694;DHT22;17446;48.022;-1.740;2022-09-09T16:36:33;24.30;90.50
30694;DHT22;17446;48.022;-1.740;2022-09-09T16:39:00;24.20;90.60
30694;DHT22;17446;48.022;-1.740;2022-09-09T16:41:26;24.20;90.90
30694;DHT22;17446;48.022;-1.740;2022-09-09T16:43:53;24.10;91.10
30694;DHT22;17446;48.022;-1.740;2022-09-09T16:46:19;24.00;91.00
30694;DHT22;17446;48.022;-1.740;2022-09-09T16:48:46;23.90;91.20
30694;DHT22;17446;48.022;-1.740;2022-09-09T16:51:16;23.80;91.10
30694;DHT22;17446;48.022;-1.740;2022-09-09T16:53:42;23.60;91.20
30694;DHT22;17446;48.022;-1.740;2022-09-09T16:56:09;23.50;91.40
30694;DHT22;17446;48.022;-1.740;2022-09-09T16:58:35;23.40;91.30
30694;DHT22;17446;48.022;-1.740;2022-09-09T17:01:02;23.30;91.30
30694;DHT22;17446;48.022;-1.740;2022-09-09T17:03:28;23.20;91.50
30694;DHT22;17446;48.022;-1.740;2022-09-09T17:05:54;23.20;91.70
30694;DHT22;17446;48.022;-1.740;2022-09-09T17:08:20;23.10;91.60
30694;DHT22;17446;48.022;-1.740;2022-09-09T17:10:45;23.10;91.50
30694;DHT22;17446;48.022;-1.740;2022-09-09T17:13:11;23.00;91.20
30694;DHT22;17446;48.022;-1.740;2022-09-09T17:15:41;22.90;91.20
30694;DHT22;17446;48.022;-1.740;2022-09-09T17:18:10;22.80;91.40
30694;DHT22;17446;48.022;-1.740;2022-09-09T17:20:37;22.70;91.30
30694;DHT22;17446;48.022;-1.740;2022-09-09T17:23:02;22.70;91.30